KBUU

Burlington Municipal Airport

Burlington, Wisconsin, USA
METAR KBUU 250035Z AUTO 12006KT 10SM CLR 26/14 A3003 RMK AO2 T02550142
Observed Flight Rules
May-25 @ 00:35 UTC (21 minutes ago) Visual Flight Rules
Wind Visibility Clouds
120° at 6 knots 10 miles
  • Clear skies
Temperatures Readings
Current 26°C / 79°F
Dewpoint 14°C / 57°F
Humidity 48%
Altimeter 30.03" Hg
Pressure 1017 hPa
Elevation 237
METAR KBUU 250035Z AUTO 12006KT 10SM CLR 26/14 A3003 RMK AO2 T02550142
Observed Flight Rules
May-25 @ 00:35 UTC
(21 minutes ago)
VFR
Wind Visibility
120° at 6 knots 10 miles
Clouds
  • Clear skies
Temperature Dewpoint
26°C / 79°F 14°C / 57°F
Humidity Altimeter Pressure
48% 30.03" Hg 1017 hPa